Time,TemperatureF,DewpointF,PressureIn,WindDirection,WindDirectionDegrees,WindSpeedMPH,WindSpeedGustMPH,Humidity,HourlyPrecipIn,Conditions,Clouds,dailyrainin,SoftwareType,DateUTC
2013-01-22 00:01:00,-8.9,-14.7,30.46,WNW,290,0.0,1.0,75,0.00,,---,0.00,VWS V14.01,2013-01-22 07:01:00,
2013-01-22 00:31:00,-9.0,-14.8,30.46,WNW,290,0.0,1.0,75,0.00,,---,0.00,VWS V14.01,2013-01-22 07:31:00,
2013-01-22 01:01:00,-9.0,-14.8,30.46,WNW,290,0.0,0.0,75,0.00,,---,0.00,VWS V14.01,2013-01-22 08:01:00,
2013-01-22 01:31:00,-9.2,-14.7,30.46,WNW,290,0.0,1.0,76,0.00,,---,0.00,VWS V14.01,2013-01-22 08:31:00,
2013-01-22 02:01:00,-10.3,-16.0,30.46,WNW,290,0.0,0.0,75,0.00,,---,0.00,VWS V14.01,2013-01-22 09:01:00,
2013-01-22 02:31:00,-10.4,-15.9,30.47,WNW,290,0.0,0.0,76,0.00,,---,0.00,VWS V14.01,2013-01-22 09:31:00,
2013-01-22 03:01:00,-10.8,-16.2,30.47,WNW,290,0.0,0.0,76,0.00,,---,0.00,VWS V14.01,2013-01-22 10:01:00,
2013-01-22 03:31:00,-11.1,-16.3,30.48,WNW,290,0.0,0.0,77,0.00,,---,0.00,VWS V14.01,2013-01-22 10:31:00,
2013-01-22 04:01:00,-10.4,-15.6,30.48,WNW,290,0.0,0.0,77,0.00,,---,0.00,VWS V14.01,2013-01-22 11:01:00,
2013-01-22 04:31:00,-10.4,-16.1,30.47,WNW,290,0.0,0.0,75,0.00,,---,0.00,VWS V14.01,2013-01-22 11:31:00,
2013-01-22 05:01:00,-10.3,-16.0,30.46,WNW,290,0.0,0.0,75,0.00,,---,0.00,VWS V14.01,2013-01-22 12:01:00,
2013-01-22 05:31:00,-11.1,-16.5,30.45,WNW,290,0.0,0.0,76,0.00,,---,0.00,VWS V14.01,2013-01-22 12:31:00,
2013-01-22 06:01:00,-11.3,-16.7,30.45,WNW,290,0.0,0.0,76,0.00,,---,0.00,VWS V14.01,2013-01-22 13:01:00,
2013-01-22 06:31:00,-11.5,-16.7,30.45,WNW,287,0.0,1.0,77,0.00,,---,0.00,VWS V14.01,2013-01-22 13:31:00,
2013-01-22 07:01:00,-11.4,-16.6,30.46,WNW,287,0.0,1.0,77,0.00,,---,0.00,VWS V14.01,2013-01-22 14:01:00,
2013-01-22 07:31:00,-10.8,-16.0,30.46,WNW,287,0.0,1.0,77,0.00,,---,0.00,VWS V14.01,2013-01-22 14:31:00,
2013-01-22 08:31:00,-7.5,-13.0,30.45,WSW,255,0.0,2.0,76,0.00,,---,0.00,VWS V14.01,2013-01-22 15:31:00,
2013-01-22 09:01:00,-5.7,-12.1,30.47,WSW,255,0.0,1.0,73,0.00,,---,0.00,VWS V14.01,2013-01-22 16:01:00,
2013-01-22 09:31:00,-4.8,-11.5,30.46,SW,225,0.0,2.0,72,0.00,,---,0.00,VWS V14.01,2013-01-22 16:31:00,
2013-01-22 10:01:00,-4.0,-10.7,30.47,WSW,237,0.0,3.0,72,0.00,,---,0.00,VWS V14.01,2013-01-22 17:01:00,
2013-01-22 10:31:00,-3.0,-10.1,30.45,South,179,3.0,3.0,71,0.00,,---,0.00,VWS V14.01,2013-01-22 17:31:00,
2013-01-22 11:01:00,-1.4,-8.5,30.44,West,259,0.0,4.0,71,0.00,,---,0.00,VWS V14.01,2013-01-22 18:01:00,
2013-01-22 11:31:00,0.1,-7.6,30.43,WSW,246,1.0,3.0,69,0.00,,---,0.00,VWS V14.01,2013-01-22 18:31:00,
2013-01-22 12:01:00,0.9,-6.9,30.42,SSW,203,0.0,6.0,69,0.00,,---,0.00,VWS V14.01,2013-01-22 19:01:00,
2013-01-22 12:31:00,2.6,-5.2,30.41,SSW,211,3.0,7.0,69,0.00,,---,0.00,VWS V14.01,2013-01-22 19:31:00,
2013-01-22 13:01:00,3.3,-4.3,30.40,SW,236,0.0,5.0,70,0.00,,---,0.00,VWS V14.01,2013-01-22 20:01:00,
2013-01-22 13:31:00,4.7,-2.6,30.39,SW,230,1.0,5.0,71,0.00,,---,0.00,VWS V14.01,2013-01-22 20:31:00,
2013-01-22 14:01:00,5.5,-1.9,30.38,SW,227,0.0,6.0,71,0.00,,---,0.00,VWS V14.01,2013-01-22 21:01:00,
2013-01-22 14:31:00,6.4,-1.6,30.38,SSW,206,2.0,4.0,69,0.00,,---,0.00,VWS V14.01,2013-01-22 21:31:00,
2013-01-22 15:01:00,7.1,-1.5,30.37,SW,234,0.0,5.0,67,0.00,,---,0.00,VWS V14.01,2013-01-22 22:01:00,
2013-01-22 15:31:00,7.8,-0.6,30.36,SW,228,0.0,2.0,68,0.00,,---,0.00,VWS V14.01,2013-01-22 22:31:00,
2013-01-22 16:01:00,8.2,-0.2,30.36,SW,228,0.0,2.0,68,0.00,,---,0.00,VWS V14.01,2013-01-22 23:01:00,
2013-01-22 16:31:00,8.3,-0.1,30.35,SW,228,0.0,1.0,68,0.00,,---,0.00,VWS V14.01,2013-01-22 23:31:00,
2013-01-22 17:01:00,7.8,-0.6,30.35,SW,223,0.0,1.0,68,0.00,,---,0.00,VWS V14.01,2013-01-23 00:01:00,
2013-01-22 17:31:00,6.4,0.5,30.33,ESE,123,1.0,2.0,76,0.00,,---,0.00,VWS V14.01,2013-01-23 00:31:00,
2013-01-22 18:01:00,6.2,0.8,30.32,SSE,161,0.0,2.0,78,0.00,,---,0.00,VWS V14.01,2013-01-23 01:01:00,
2013-01-22 18:31:00,5.8,0.7,30.31,ESE,118,1.0,3.0,79,0.00,,---,0.00,VWS V14.01,2013-01-23 01:31:00,
2013-01-22 19:01:00,5.9,1.1,30.30,SE,143,0.0,3.0,80,0.00,,---,0.00,VWS V14.01,2013-01-23 02:01:00,
2013-01-22 19:31:00,6.2,1.4,30.31,SSE,157,0.0,2.0,80,0.00,,---,0.00,VWS V14.01,2013-01-23 02:31:00,
2013-01-22 20:01:00,6.9,2.0,30.30,SSE,157,0.0,2.0,80,0.00,,---,0.00,VWS V14.01,2013-01-23 03:01:00,
2013-01-22 20:31:00,7.5,2.4,30.30,SSE,157,1.0,2.0,79,0.00,,---,0.00,VWS V14.01,2013-01-23 03:31:00,
2013-01-22 21:01:00,7.9,2.5,30.30,SSW,192,0.0,2.0,78,0.00,,---,0.00,VWS V14.01,2013-01-23 04:01:00,
2013-01-22 21:31:00,8.3,3.1,30.29,SSW,192,0.0,1.0,79,0.00,,---,0.00,VWS V14.01,2013-01-23 04:31:00,
2013-01-22 22:31:00,8.5,3.6,30.28,South,172,0.0,2.0,80,0.00,,---,0.00,VWS V14.01,2013-01-23 05:31:00,
2013-01-22 23:31:00,8.7,4.1,30.26,SSE,167,0.0,2.0,81,0.00,,---,0.00,VWS V14.01,2013-01-23 06:31:00,